sensor_id;sensor_type;location;lat;lon;timestamp;P1;durP1;ratioP1;P2;durP2;ratioP2
79076;SDS011;68477;42.698;23.342;2023-08-07T00:00:19;3.33;;;1.80;;
79076;SDS011;68477;42.698;23.342;2023-08-07T00:02:44;2.38;;;1.80;;
79076;SDS011;68477;42.698;23.342;2023-08-07T00:05:11;2.88;;;1.80;;
79076;SDS011;68477;42.698;23.342;2023-08-07T00:07:36;2.47;;;1.83;;
79076;SDS011;68477;42.698;23.342;2023-08-07T00:10:02;2.65;;;1.70;;
79076;SDS011;68477;42.698;23.342;2023-08-07T00:12:28;3.25;;;1.98;;
79076;SDS011;68477;42.698;23.342;2023-08-07T00:14:53;3.13;;;1.88;;
79076;SDS011;68477;42.698;23.342;2023-08-07T00:17:19;2.60;;;1.80;;
79076;SDS011;68477;42.698;23.342;2023-08-07T00:19:44;2.67;;;1.90;;
79076;SDS011;68477;42.698;23.342;2023-08-07T00:22:11;2.42;;;1.63;;
79076;SDS011;68477;42.698;23.342;2023-08-07T00:24:36;2.65;;;1.65;;
79076;SDS011;68477;42.698;23.342;2023-08-07T00:27:02;3.47;;;2.00;;
79076;SDS011;68477;42.698;23.342;2023-08-07T00:29:28;2.92;;;2.08;;
79076;SDS011;68477;42.698;23.342;2023-08-07T00:31:53;2.63;;;1.80;;
79076;SDS011;68477;42.698;23.342;2023-08-07T00:34:19;3.40;;;2.20;;
79076;SDS011;68477;42.698;23.342;2023-08-07T00:36:44;2.97;;;2.10;;
79076;SDS011;68477;42.698;23.342;2023-08-07T00:39:10;2.80;;;1.83;;
79076;SDS011;68477;42.698;23.342;2023-08-07T00:41:35;3.03;;;1.90;;
79076;SDS011;68477;42.698;23.342;2023-08-07T00:44:01;2.63;;;1.75;;
79076;SDS011;68477;42.698;23.342;2023-08-07T00:46:27;3.40;;;2.13;;
79076;SDS011;68477;42.698;23.342;2023-08-07T00:48:54;3.60;;;2.10;;
79076;SDS011;68477;42.698;23.342;2023-08-07T00:51:20;3.60;;;2.17;;
79076;SDS011;68477;42.698;23.342;2023-08-07T00:53:47;5.22;;;2.50;;
79076;SDS011;68477;42.698;23.342;2023-08-07T00:56:13;5.43;;;2.50;;
79076;SDS011;68477;42.698;23.342;2023-08-07T00:58:39;4.25;;;2.60;;
79076;SDS011;68477;42.698;23.342;2023-08-07T01:01:05;4.45;;;2.50;;
79076;SDS011;68477;42.698;23.342;2023-08-07T01:03:31;3.40;;;2.60;;
79076;SDS011;68477;42.698;23.342;2023-08-07T01:05:57;4.50;;;2.40;;
79076;SDS011;68477;42.698;23.342;2023-08-07T01:08:23;4.10;;;2.30;;
79076;SDS011;68477;42.698;23.342;2023-08-07T01:13:35;3.53;;;2.70;;
79076;SDS011;68477;42.698;23.342;2023-08-07T01:16:07;3.75;;;2.70;;
79076;SDS011;68477;42.698;23.342;2023-08-07T01:18:38;3.45;;;2.88;;
79076;SDS011;68477;42.698;23.342;2023-08-07T01:21:05;4.75;;;2.92;;
79076;SDS011;68477;42.698;23.342;2023-08-07T01:23:31;3.78;;;3.03;;
79076;SDS011;68477;42.698;23.342;2023-08-07T01:25:56;4.75;;;3.50;;
79076;SDS011;68477;42.698;23.342;2023-08-07T01:28:25;4.40;;;3.30;;
79076;SDS011;68477;42.698;23.342;2023-08-07T01:30:59;3.95;;;3.13;;
79076;SDS011;68477;42.698;23.342;2023-08-07T01:33:32;4.00;;;3.10;;
79076;SDS011;68477;42.698;23.342;2023-08-07T01:36:05;4.60;;;3.65;;
79076;SDS011;68477;42.698;23.342;2023-08-07T01:38:33;4.10;;;3.38;;
79076;SDS011;68477;42.698;23.342;2023-08-07T01:41:00;5.25;;;3.50;;
79076;SDS011;68477;42.698;23.342;2023-08-07T01:43:26;4.35;;;3.47;;
79076;SDS011;68477;42.698;23.342;2023-08-07T01:45:52;7.40;;;3.78;;
79076;SDS011;68477;42.698;23.342;2023-08-07T01:48:17;4.88;;;3.75;;
79076;SDS011;68477;42.698;23.342;2023-08-07T01:50:43;6.22;;;4.10;;
79076;SDS011;68477;42.698;23.342;2023-08-07T01:53:09;4.88;;;3.33;;
79076;SDS011;68477;42.698;23.342;2023-08-07T01:55:34;5.28;;;3.88;;
79076;SDS011;68477;42.698;23.342;2023-08-07T01:58:00;6.68;;;3.58;;
79076;SDS011;68477;42.698;23.342;2023-08-07T02:00:25;5.82;;;3.72;;
79076;SDS011;68477;42.698;23.342;2023-08-07T02:02:50;5.53;;;3.70;;
79076;SDS011;68477;42.698;23.342;2023-08-07T02:05:16;4.90;;;4.10;;
79076;SDS011;68477;42.698;23.342;2023-08-07T02:07:42;4.80;;;3.78;;
79076;SDS011;68477;42.698;23.342;2023-08-07T02:10:09;5.45;;;4.32;;
79076;SDS011;68477;42.698;23.342;2023-08-07T02:12:34;4.80;;;3.97;;
79076;SDS011;68477;42.698;23.342;2023-08-07T02:15:00;5.78;;;4.20;;
79076;SDS011;68477;42.698;23.342;2023-08-07T02:17:27;5.63;;;4.15;;
79076;SDS011;68477;42.698;23.342;2023-08-07T02:19:52;4.47;;;3.50;;
79076;SDS011;68477;42.698;23.342;2023-08-07T02:22:18;5.97;;;4.10;;
79076;SDS011;68477;42.698;23.342;2023-08-07T02:24:44;5.68;;;4.22;;
79076;SDS011;68477;42.698;23.342;2023-08-07T02:27:09;4.85;;;3.80;;
79076;SDS011;68477;42.698;23.342;2023-08-07T02:29:35;5.43;;;3.67;;
79076;SDS011;68477;42.698;23.342;2023-08-07T02:32:03;5.20;;;3.45;;
79076;SDS011;68477;42.698;23.342;2023-08-07T02:36:54;5.13;;;3.83;;
79076;SDS011;68477;42.698;23.342;2023-08-07T02:39:20;4.20;;;3.30;;
79076;SDS011;68477;42.698;23.342;2023-08-07T02:41:46;10.75;;;5.78;;
79076;SDS011;68477;42.698;23.342;2023-08-07T02:44:13;4.90;;;3.50;;
79076;SDS011;68477;42.698;23.342;2023-08-07T02:46:39;4.47;;;3.35;;
79076;SDS011;68477;42.698;23.342;2023-08-07T02:49:04;4.78;;;3.70;;
79076;SDS011;68477;42.698;23.342;2023-08-07T02:51:30;7.97;;;4.43;;
79076;SDS011;68477;42.698;23.342;2023-08-07T02:53:55;4.93;;;4.43;;
79076;SDS011;68477;42.698;23.342;2023-08-07T02:56:21;6.00;;;3.80;;
79076;SDS011;68477;42.698;23.342;2023-08-07T02:58:46;5.55;;;4.40;;
79076;SDS011;68477;42.698;23.342;2023-08-07T03:01:12;6.10;;;3.95;;
79076;SDS011;68477;42.698;23.342;2023-08-07T03:03:38;5.38;;;4.15;;
79076;SDS011;68477;42.698;23.342;2023-08-07T03:06:03;4.97;;;3.70;;
79076;SDS011;68477;42.698;23.342;2023-08-07T03:08:29;5.32;;;4.22;;
79076;SDS011;68477;42.698;23.342;2023-08-07T03:10:55;6.80;;;4.38;;
79076;SDS011;68477;42.698;23.342;2023-08-07T03:13:23;5.63;;;4.13;;
79076;SDS011;68477;42.698;23.342;2023-08-07T03:15:49;7.30;;;4.85;;
79076;SDS011;68477;42.698;23.342;2023-08-07T03:18:18;5.57;;;4.57;;
79076;SDS011;68477;42.698;23.342;2023-08-07T03:20:43;6.03;;;4.68;;
79076;SDS011;68477;42.698;23.342;2023-08-07T03:23:09;5.22;;;3.92;;
79076;SDS011;68477;42.698;23.342;2023-08-07T03:25:35;6.10;;;4.50;;
79076;SDS011;68477;42.698;23.342;2023-08-07T03:28:01;6.38;;;4.43;;
79076;SDS011;68477;42.698;23.342;2023-08-07T03:30:26;6.28;;;4.70;;
79076;SDS011;68477;42.698;23.342;2023-08-07T03:32:52;5.45;;;4.70;;
79076;SDS011;68477;42.698;23.342;2023-08-07T03:35:17;5.25;;;4.35;;
79076;SDS011;68477;42.698;23.342;2023-08-07T03:37:43;5.55;;;4.38;;
79076;SDS011;68477;42.698;23.342;2023-08-07T03:40:09;4.82;;;3.92;;
79076;SDS011;68477;42.698;23.342;2023-08-07T03:42:34;6.30;;;4.75;;
79076;SDS011;68477;42.698;23.342;2023-08-07T03:45:00;5.68;;;4.40;;
79076;SDS011;68477;42.698;23.342;2023-08-07T03:47:25;5.50;;;4.15;;
79076;SDS011;68477;42.698;23.342;2023-08-07T03:49:51;6.32;;;4.93;;
79076;SDS011;68477;42.698;23.342;2023-08-07T03:52:16;6.72;;;4.55;;
79076;SDS011;68477;42.698;23.342;2023-08-07T03:54:42;6.20;;;4.32;;
79076;SDS011;68477;42.698;23.342;2023-08-07T03:57:08;6.07;;;4.07;;
79076;SDS011;68477;42.698;23.342;2023-08-07T03:59:35;7.82;;;4.18;;
79076;SDS011;68477;42.698;23.342;2023-08-07T04:02:00;6.40;;;4.40;;
79076;SDS011;68477;42.698;23.342;2023-08-07T04:04:26;6.85;;;4.70;;
79076;SDS011;68477;42.698;23.342;2023-08-07T04:06:51;5.40;;;4.10;;
79076;SDS011;68477;42.698;23.342;2023-08-07T04:09:17;5.35;;;4.03;;
79076;SDS011;68477;42.698;23.342;2023-08-07T04:11:42;7.07;;;4.00;;
79076;SDS011;68477;42.698;23.342;2023-08-07T04:14:07;5.78;;;4.30;;
79076;SDS011;68477;42.698;23.342;2023-08-07T04:16:33;4.82;;;4.10;;
79076;SDS011;68477;42.698;23.342;2023-08-07T04:18:59;7.32;;;3.55;;
79076;SDS011;68477;42.698;23.342;2023-08-07T04:21:24;5.25;;;3.40;;
79076;SDS011;68477;42.698;23.342;2023-08-07T04:23:50;4.15;;;3.47;;
79076;SDS011;68477;42.698;23.342;2023-08-07T04:26:15;7.65;;;3.58;;
79076;SDS011;68477;42.698;23.342;2023-08-07T04:28:40;5.45;;;3.05;;
79076;SDS011;68477;42.698;23.342;2023-08-07T04:31:07;5.55;;;3.47;;
79076;SDS011;68477;42.698;23.342;2023-08-07T04:33:33;6.20;;;3.50;;
79076;SDS011;68477;42.698;23.342;2023-08-07T04:35:59;5.38;;;3.97;;
79076;SDS011;68477;42.698;23.342;2023-08-07T04:38:24;4.90;;;3.60;;
79076;SDS011;68477;42.698;23.342;2023-08-07T04:40:50;10.43;;;3.75;;
79076;SDS011;68477;42.698;23.342;2023-08-07T04:43:16;5.28;;;3.22;;
79076;SDS011;68477;42.698;23.342;2023-08-07T04:45:43;4.13;;;2.92;;
79076;SDS011;68477;42.698;23.342;2023-08-07T04:48:10;4.78;;;3.50;;
79076;SDS011;68477;42.698;23.342;2023-08-07T04:50:36;4.25;;;3.28;;
79076;SDS011;68477;42.698;23.342;2023-08-07T04:53:03;5.47;;;3.58;;
79076;SDS011;68477;42.698;23.342;2023-08-07T04:55:30;7.60;;;4.03;;
79076;SDS011;68477;42.698;23.342;2023-08-07T04:57:56;5.97;;;2.78;;
79076;SDS011;68477;42.698;23.342;2023-08-07T05:00:22;4.20;;;2.60;;
79076;SDS011;68477;42.698;23.342;2023-08-07T05:02:48;5.35;;;3.05;;
79076;SDS011;68477;42.698;23.342;2023-08-07T05:05:14;7.78;;;4.43;;
79076;SDS011;68477;42.698;23.342;2023-08-07T05:07:40;5.72;;;3.65;;
79076;SDS011;68477;42.698;23.342;2023-08-07T05:10:06;9.73;;;3.80;;
79076;SDS011;68477;42.698;23.342;2023-08-07T05:12:32;5.93;;;3.45;;
79076;SDS011;68477;42.698;23.342;2023-08-07T05:14:57;5.75;;;3.13;;
79076;SDS011;68477;42.698;23.342;2023-08-07T05:17:23;10.85;;;3.50;;
79076;SDS011;68477;42.698;23.342;2023-08-07T05:19:48;4.55;;;2.72;;
79076;SDS011;68477;42.698;23.342;2023-08-07T05:22:14;6.72;;;3.20;;
79076;SDS011;68477;42.698;23.342;2023-08-07T05:24:40;4.35;;;2.70;;
79076;SDS011;68477;42.698;23.342;2023-08-07T05:27:09;4.38;;;2.97;;
79076;SDS011;68477;42.698;23.342;2023-08-07T05:29:35;6.00;;;3.20;;
79076;SDS011;68477;42.698;23.342;2023-08-07T05:32:08;5.63;;;2.80;;
79076;SDS011;68477;42.698;23.342;2023-08-07T05:34:37;6.65;;;3.10;;
79076;SDS011;68477;42.698;23.342;2023-08-07T05:37:03;5.95;;;3.47;;
79076;SDS011;68477;42.698;23.342;2023-08-07T05:39:29;5.22;;;2.95;;
79076;SDS011;68477;42.698;23.342;2023-08-07T05:41:56;6.50;;;2.95;;
79076;SDS011;68477;42.698;23.342;2023-08-07T05:44:23;3.60;;;2.60;;
79076;SDS011;68477;42.698;23.342;2023-08-07T05:46:48;5.30;;;2.75;;
79076;SDS011;68477;42.698;23.342;2023-08-07T05:49:14;4.20;;;2.70;;
79076;SDS011;68477;42.698;23.342;2023-08-07T05:51:40;4.82;;;3.10;;
79076;SDS011;68477;42.698;23.342;2023-08-07T05:54:05;4.05;;;2.60;;
79076;SDS011;68477;42.698;23.342;2023-08-07T05:56:30;4.43;;;2.50;;
79076;SDS011;68477;42.698;23.342;2023-08-07T05:58:56;3.78;;;2.63;;
79076;SDS011;68477;42.698;23.342;2023-08-07T06:01:21;9.32;;;2.83;;
79076;SDS011;68477;42.698;23.342;2023-08-07T06:03:47;3.45;;;2.50;;
79076;SDS011;68477;42.698;23.342;2023-08-07T06:06:12;3.70;;;2.40;;
79076;SDS011;68477;42.698;23.342;2023-08-07T06:08:38;6.15;;;3.45;;
79076;SDS011;68477;42.698;23.342;2023-08-07T06:11:03;5.38;;;2.90;;
79076;SDS011;68477;42.698;23.342;2023-08-07T06:13:30;6.93;;;2.90;;
79076;SDS011;68477;42.698;23.342;2023-08-07T06:15:55;4.03;;;2.40;;
79076;SDS011;68477;42.698;23.342;2023-08-07T06:18:21;4.20;;;2.85;;
79076;SDS011;68477;42.698;23.342;2023-08-07T06:20:47;7.38;;;3.20;;
79076;SDS011;68477;42.698;23.342;2023-08-07T06:23:12;5.75;;;2.97;;
79076;SDS011;68477;42.698;23.342;2023-08-07T06:25:38;5.03;;;2.97;;
79076;SDS011;68477;42.698;23.342;2023-08-07T06:28:03;4.85;;;2.95;;
79076;SDS011;68477;42.698;23.342;2023-08-07T06:30:30;4.80;;;2.97;;
79076;SDS011;68477;42.698;23.342;2023-08-07T06:32:56;3.58;;;2.50;;
79076;SDS011;68477;42.698;23.342;2023-08-07T06:35:22;7.30;;;2.45;;
79076;SDS011;68477;42.698;23.342;2023-08-07T06:37:47;3.22;;;2.20;;
79076;SDS011;68477;42.698;23.342;2023-08-07T06:40:13;3.75;;;2.22;;
79076;SDS011;68477;42.698;23.342;2023-08-07T06:42:39;4.10;;;2.45;;
79076;SDS011;68477;42.698;23.342;2023-08-07T06:45:05;4.47;;;2.95;;
79076;SDS011;68477;42.698;23.342;2023-08-07T06:47:31;5.75;;;2.30;;
79076;SDS011;68477;42.698;23.342;2023-08-07T06:49:57;4.35;;;2.00;;
79076;SDS011;68477;42.698;23.342;2023-08-07T06:52:22;3.92;;;2.25;;
79076;SDS011;68477;42.698;23.342;2023-08-07T06:54:48;3.63;;;2.42;;
79076;SDS011;68477;42.698;23.342;2023-08-07T06:57:13;5.40;;;1.83;;
79076;SDS011;68477;42.698;23.342;2023-08-07T06:59:39;3.45;;;1.85;;
79076;SDS011;68477;42.698;23.342;2023-08-07T07:02:05;3.38;;;1.83;;
79076;SDS011;68477;42.698;23.342;2023-08-07T07:04:30;4.97;;;2.17;;
79076;SDS011;68477;42.698;23.342;2023-08-07T07:06:56;2.47;;;1.90;;
79076;SDS011;68477;42.698;23.342;2023-08-07T07:09:21;3.67;;;2.28;;
79076;SDS011;68477;42.698;23.342;2023-08-07T07:11:47;3.70;;;2.17;;
79076;SDS011;68477;42.698;23.342;2023-08-07T07:14:13;5.18;;;2.20;;
79076;SDS011;68477;42.698;23.342;2023-08-07T07:16:38;4.00;;;1.75;;
79076;SDS011;68477;42.698;23.342;2023-08-07T07:19:04;3.83;;;2.40;;
79076;SDS011;68477;42.698;23.342;2023-08-07T07:21:33;2.90;;;1.70;;
79076;SDS011;68477;42.698;23.342;2023-08-07T07:23:59;2.83;;;1.98;;
79076;SDS011;68477;42.698;23.342;2023-08-07T07:26:24;3.35;;;2.03;;
79076;SDS011;68477;42.698;23.342;2023-08-07T07:28:49;2.88;;;1.80;;
79076;SDS011;68477;42.698;23.342;2023-08-07T07:31:17;3.70;;;2.03;;
79076;SDS011;68477;42.698;23.342;2023-08-07T07:33:42;9.55;;;2.20;;
79076;SDS011;68477;42.698;23.342;2023-08-07T07:36:13;3.30;;;1.75;;
79076;SDS011;68477;42.698;23.342;2023-08-07T07:38:40;2.70;;;1.75;;
79076;SDS011;68477;42.698;23.342;2023-08-07T07:41:05;4.00;;;2.35;;
79076;SDS011;68477;42.698;23.342;2023-08-07T07:43:35;3.03;;;2.10;;
79076;SDS011;68477;42.698;23.342;2023-08-07T07:46:00;4.70;;;2.92;;
79076;SDS011;68477;42.698;23.342;2023-08-07T07:48:26;4.90;;;1.92;;
79076;SDS011;68477;42.698;23.342;2023-08-07T07:50:57;5.95;;;2.90;;
79076;SDS011;68477;42.698;23.342;2023-08-07T07:53:24;3.67;;;1.98;;
79076;SDS011;68477;42.698;23.342;2023-08-07T07:55:49;5.57;;;1.90;;
79076;SDS011;68477;42.698;23.342;2023-08-07T07:58:15;5.03;;;2.00;;
79076;SDS011;68477;42.698;23.342;2023-08-07T08:00:40;3.25;;;1.90;;
79076;SDS011;68477;42.698;23.342;2023-08-07T08:03:06;4.68;;;2.08;;
79076;SDS011;68477;42.698;23.342;2023-08-07T08:05:31;3.47;;;1.70;;
79076;SDS011;68477;42.698;23.342;2023-08-07T08:07:57;2.20;;;1.42;;
79076;SDS011;68477;42.698;23.342;2023-08-07T08:10:22;2.53;;;1.88;;
79076;SDS011;68477;42.698;23.342;2023-08-07T08:12:47;5.82;;;2.10;;
79076;SDS011;68477;42.698;23.342;2023-08-07T08:15:13;3.80;;;1.60;;
79076;SDS011;68477;42.698;23.342;2023-08-07T08:17:40;2.95;;;2.08;;
79076;SDS011;68477;42.698;23.342;2023-08-07T08:20:05;2.75;;;1.70;;
79076;SDS011;68477;42.698;23.342;2023-08-07T08:22:32;2.20;;;1.50;;
79076;SDS011;68477;42.698;23.342;2023-08-07T08:24:58;3.10;;;1.50;;
79076;SDS011;68477;42.698;23.342;2023-08-07T08:27:23;2.33;;;1.63;;
79076;SDS011;68477;42.698;23.342;2023-08-07T08:29:50;2.92;;;1.65;;
79076;SDS011;68477;42.698;23.342;2023-08-07T08:32:15;4.38;;;1.73;;
79076;SDS011;68477;42.698;23.342;2023-08-07T08:34:41;3.25;;;1.40;;
79076;SDS011;68477;42.698;23.342;2023-08-07T08:37:06;2.95;;;1.75;;
79076;SDS011;68477;42.698;23.342;2023-08-07T08:39:32;2.25;;;1.42;;
79076;SDS011;68477;42.698;23.342;2023-08-07T08:41:57;2.55;;;2.00;;
79076;SDS011;68477;42.698;23.342;2023-08-07T08:44:24;3.58;;;1.80;;
79076;SDS011;68477;42.698;23.342;2023-08-07T08:46:54;2.85;;;1.40;;
79076;SDS011;68477;42.698;23.342;2023-08-07T08:49:26;4.72;;;1.70;;
79076;SDS011;68477;42.698;23.342;2023-08-07T08:51:56;3.30;;;1.60;;
79076;SDS011;68477;42.698;23.342;2023-08-07T08:54:21;2.17;;;1.40;;
79076;SDS011;68477;42.698;23.342;2023-08-07T08:56:47;3.75;;;1.77;;
79076;SDS011;68477;42.698;23.342;2023-08-07T08:59:13;2.95;;;1.58;;
79076;SDS011;68477;42.698;23.342;2023-08-07T09:01:38;8.52;;;1.88;;
79076;SDS011;68477;42.698;23.342;2023-08-07T09:04:04;4.03;;;1.77;;
79076;SDS011;68477;42.698;23.342;2023-08-07T09:06:31;2.85;;;1.75;;
79076;SDS011;68477;42.698;23.342;2023-08-07T09:08:57;3.25;;;1.70;;
79076;SDS011;68477;42.698;23.342;2023-08-07T09:11:23;2.83;;;1.70;;
79076;SDS011;68477;42.698;23.342;2023-08-07T09:13:50;2.50;;;1.52;;
79076;SDS011;68477;42.698;23.342;2023-08-07T09:16:16;3.92;;;1.50;;
79076;SDS011;68477;42.698;23.342;2023-08-07T09:18:42;2.30;;;1.63;;
79076;SDS011;68477;42.698;23.342;2023-08-07T09:21:08;3.75;;;1.80;;
79076;SDS011;68477;42.698;23.342;2023-08-07T09:23:34;3.65;;;1.60;;
79076;SDS011;68477;42.698;23.342;2023-08-07T09:26:00;3.25;;;2.00;;
79076;SDS011;68477;42.698;23.342;2023-08-07T09:28:29;3.65;;;2.00;;
79076;SDS011;68477;42.698;23.342;2023-08-07T09:30:56;2.95;;;1.95;;
79076;SDS011;68477;42.698;23.342;2023-08-07T09:33:26;2.53;;;1.67;;
79076;SDS011;68477;42.698;23.342;2023-08-07T09:35:52;2.92;;;1.90;;
79076;SDS011;68477;42.698;23.342;2023-08-07T09:38:22;2.88;;;1.70;;
79076;SDS011;68477;42.698;23.342;2023-08-07T09:40:48;2.20;;;1.60;;
79076;SDS011;68477;42.698;23.342;2023-08-07T09:43:20;3.65;;;1.80;;
79076;SDS011;68477;42.698;23.342;2023-08-07T09:45:46;4.20;;;1.60;;
79076;SDS011;68477;42.698;23.342;2023-08-07T09:48:11;3.97;;;1.60;;
79076;SDS011;68477;42.698;23.342;2023-08-07T09:50:38;3.05;;;1.67;;
79076;SDS011;68477;42.698;23.342;2023-08-07T09:53:04;3.35;;;1.77;;
79076;SDS011;68477;42.698;23.342;2023-08-07T09:55:30;2.75;;;1.80;;
79076;SDS011;68477;42.698;23.342;2023-08-07T09:57:56;2.40;;;1.55;;
79076;SDS011;68477;42.698;23.342;2023-08-07T10:00:21;5.70;;;1.60;;
79076;SDS011;68477;42.698;23.342;2023-08-07T10:02:48;3.13;;;1.70;;
79076;SDS011;68477;42.698;23.342;2023-08-07T10:05:15;2.42;;;1.60;;
79076;SDS011;68477;42.698;23.342;2023-08-07T10:07:41;3.28;;;1.70;;
79076;SDS011;68477;42.698;23.342;2023-08-07T10:10:07;2.65;;;1.80;;
79076;SDS011;68477;42.698;23.342;2023-08-07T10:12:35;3.28;;;2.13;;
79076;SDS011;68477;42.698;23.342;2023-08-07T10:15:01;2.53;;;1.70;;
79076;SDS011;68477;42.698;23.342;2023-08-07T10:17:27;3.65;;;1.80;;
79076;SDS011;68477;42.698;23.342;2023-08-07T10:19:54;3.28;;;1.77;;
79076;SDS011;68477;42.698;23.342;2023-08-07T10:22:22;4.40;;;1.80;;
79076;SDS011;68477;42.698;23.342;2023-08-07T10:24:53;2.53;;;1.60;;
79076;SDS011;68477;42.698;23.342;2023-08-07T10:27:23;2.20;;;1.50;;
79076;SDS011;68477;42.698;23.342;2023-08-07T10:29:51;2.60;;;1.60;;
79076;SDS011;68477;42.698;23.342;2023-08-07T10:34:54;2.72;;;1.70;;
79076;SDS011;68477;42.698;23.342;2023-08-07T10:37:39;2.50;;;1.80;;
79076;SDS011;68477;42.698;23.342;2023-08-07T10:40:08;3.25;;;1.67;;
79076;SDS011;68477;42.698;23.342;2023-08-07T10:45:33;3.65;;;2.00;;
79076;SDS011;68477;42.698;23.342;2023-08-07T10:50:34;5.35;;;1.80;;
79076;SDS011;68477;42.698;23.342;2023-08-07T10:53:11;5.50;;;2.08;;
79076;SDS011;68477;42.698;23.342;2023-08-07T10:55:44;3.17;;;2.00;;
79076;SDS011;68477;42.698;23.342;2023-08-07T11:00:50;3.05;;;1.73;;
79076;SDS011;68477;42.698;23.342;2023-08-07T11:03:20;2.58;;;1.67;;
79076;SDS011;68477;42.698;23.342;2023-08-07T11:05:57;3.10;;;2.10;;
79076;SDS011;68477;42.698;23.342;2023-08-07T11:08:24;3.47;;;2.10;;
79076;SDS011;68477;42.698;23.342;2023-08-07T11:10:52;4.05;;;1.67;;
79076;SDS011;68477;42.698;23.342;2023-08-07T11:13:20;2.80;;;1.63;;
79076;SDS011;68477;42.698;23.342;2023-08-07T11:15:46;3.25;;;2.20;;
79076;SDS011;68477;42.698;23.342;2023-08-07T11:18:12;3.00;;;1.63;;
79076;SDS011;68477;42.698;23.342;2023-08-07T11:20:37;2.45;;;1.80;;
79076;SDS011;68477;42.698;23.342;2023-08-07T11:23:04;2.70;;;1.73;;
79076;SDS011;68477;42.698;23.342;2023-08-07T11:25:30;2.55;;;1.67;;
79076;SDS011;68477;42.698;23.342;2023-08-07T11:27:55;2.90;;;1.90;;
79076;SDS011;68477;42.698;23.342;2023-08-07T11:32:48;6.40;;;2.17;;
79076;SDS011;68477;42.698;23.342;2023-08-07T11:35:14;2.55;;;1.67;;
79076;SDS011;68477;42.698;23.342;2023-08-07T11:37:46;3.10;;;1.88;;
79076;SDS011;68477;42.698;23.342;2023-08-07T11:40:12;2.72;;;1.70;;
79076;SDS011;68477;42.698;23.342;2023-08-07T11:42:40;3.55;;;1.80;;
79076;SDS011;68477;42.698;23.342;2023-08-07T11:45:06;3.03;;;1.85;;
79076;SDS011;68477;42.698;23.342;2023-08-07T11:47:32;3.95;;;2.10;;
79076;SDS011;68477;42.698;23.342;2023-08-07T11:49:58;2.92;;;2.00;;
79076;SDS011;68477;42.698;23.342;2023-08-07T11:52:24;3.60;;;2.38;;
79076;SDS011;68477;42.698;23.342;2023-08-07T11:54:49;2.40;;;1.70;;
79076;SDS011;68477;42.698;23.342;2023-08-07T11:59:47;4.90;;;2.10;;
79076;SDS011;68477;42.698;23.342;2023-08-07T12:02:13;4.22;;;1.70;;
79076;SDS011;68477;42.698;23.342;2023-08-07T12:04:39;5.28;;;1.83;;
79076;SDS011;68477;42.698;23.342;2023-08-07T12:07:05;3.05;;;1.80;;
79076;SDS011;68477;42.698;23.342;2023-08-07T12:09:30;3.17;;;1.95;;
79076;SDS011;68477;42.698;23.342;2023-08-07T12:11:58;3.30;;;2.05;;
79076;SDS011;68477;42.698;23.342;2023-08-07T12:14:28;3.70;;;1.83;;
79076;SDS011;68477;42.698;23.342;2023-08-07T12:16:54;2.83;;;1.70;;
79076;SDS011;68477;42.698;23.342;2023-08-07T12:19:20;3.78;;;1.85;;
79076;SDS011;68477;42.698;23.342;2023-08-07T12:21:46;3.45;;;1.70;;
79076;SDS011;68477;42.698;23.342;2023-08-07T12:24:11;4.05;;;2.28;;
79076;SDS011;68477;42.698;23.342;2023-08-07T12:26:38;3.13;;;1.80;;
79076;SDS011;68477;42.698;23.342;2023-08-07T12:29:03;4.22;;;2.10;;
79076;SDS011;68477;42.698;23.342;2023-08-07T12:31:29;2.50;;;1.55;;
79076;SDS011;68477;42.698;23.342;2023-08-07T12:33:54;3.83;;;1.90;;
79076;SDS011;68477;42.698;23.342;2023-08-07T12:36:20;3.33;;;2.15;;
79076;SDS011;68477;42.698;23.342;2023-08-07T12:38:45;3.88;;;1.85;;
79076;SDS011;68477;42.698;23.342;2023-08-07T12:41:11;2.85;;;1.92;;
79076;SDS011;68477;42.698;23.342;2023-08-07T12:43:37;2.80;;;2.05;;
79076;SDS011;68477;42.698;23.342;2023-08-07T12:46:02;3.38;;;2.10;;
79076;SDS011;68477;42.698;23.342;2023-08-07T12:48:28;4.18;;;1.77;;
79076;SDS011;68477;42.698;23.342;2023-08-07T12:50:54;2.78;;;1.75;;
79076;SDS011;68477;42.698;23.342;2023-08-07T12:53:19;3.88;;;1.95;;
79076;SDS011;68477;42.698;23.342;2023-08-07T12:55:44;6.80;;;2.38;;
79076;SDS011;68477;42.698;23.342;2023-08-07T12:58:10;3.50;;;2.08;;
79076;SDS011;68477;42.698;23.342;2023-08-07T13:00:36;2.95;;;2.08;;
79076;SDS011;68477;42.698;23.342;2023-08-07T13:03:01;5.28;;;2.47;;
79076;SDS011;68477;42.698;23.342;2023-08-07T13:05:27;3.95;;;2.00;;
79076;SDS011;68477;42.698;23.342;2023-08-07T13:07:55;3.33;;;1.77;;
79076;SDS011;68477;42.698;23.342;2023-08-07T13:10:23;3.03;;;1.83;;
79076;SDS011;68477;42.698;23.342;2023-08-07T13:12:49;2.95;;;2.00;;
79076;SDS011;68477;42.698;23.342;2023-08-07T13:15:15;3.72;;;1.83;;
79076;SDS011;68477;42.698;23.342;2023-08-07T13:17:42;3.55;;;2.00;;
79076;SDS011;68477;42.698;23.342;2023-08-07T13:20:09;4.18;;;2.15;;
79076;SDS011;68477;42.698;23.342;2023-08-07T13:22:39;5.88;;;2.00;;
79076;SDS011;68477;42.698;23.342;2023-08-07T13:25:06;3.42;;;2.53;;
79076;SDS011;68477;42.698;23.342;2023-08-07T13:27:32;3.55;;;2.20;;
79076;SDS011;68477;42.698;23.342;2023-08-07T13:30:00;3.92;;;1.80;;
79076;SDS011;68477;42.698;23.342;2023-08-07T13:32:26;2.65;;;1.95;;
79076;SDS011;68477;42.698;23.342;2023-08-07T13:34:52;3.10;;;1.80;;
79076;SDS011;68477;42.698;23.342;2023-08-07T13:37:18;3.45;;;2.08;;
79076;SDS011;68477;42.698;23.342;2023-08-07T13:39:43;3.90;;;1.73;;
79076;SDS011;68477;42.698;23.342;2023-08-07T13:42:09;3.60;;;2.00;;
79076;SDS011;68477;42.698;23.342;2023-08-07T13:44:35;2.50;;;1.73;;
79076;SDS011;68477;42.698;23.342;2023-08-07T13:47:01;2.92;;;2.00;;
79076;SDS011;68477;42.698;23.342;2023-08-07T13:49:27;2.53;;;1.70;;
79076;SDS011;68477;42.698;23.342;2023-08-07T13:51:53;4.97;;;2.20;;
79076;SDS011;68477;42.698;23.342;2023-08-07T13:54:19;3.45;;;2.00;;
79076;SDS011;68477;42.698;23.342;2023-08-07T13:56:44;3.22;;;1.90;;
79076;SDS011;68477;42.698;23.342;2023-08-07T13:59:10;3.10;;;1.73;;
79076;SDS011;68477;42.698;23.342;2023-08-07T14:01:35;2.75;;;1.70;;
79076;SDS011;68477;42.698;23.342;2023-08-07T14:04:01;2.97;;;1.95;;
79076;SDS011;68477;42.698;23.342;2023-08-07T14:06:27;4.47;;;1.70;;
79076;SDS011;68477;42.698;23.342;2023-08-07T14:08:53;5.07;;;2.17;;
79076;SDS011;68477;42.698;23.342;2023-08-07T14:11:18;4.70;;;1.90;;
79076;SDS011;68477;42.698;23.342;2023-08-07T14:13:45;3.72;;;1.85;;
79076;SDS011;68477;42.698;23.342;2023-08-07T14:16:11;5.68;;;2.08;;
79076;SDS011;68477;42.698;23.342;2023-08-07T14:18:37;3.92;;;2.00;;
79076;SDS011;68477;42.698;23.342;2023-08-07T14:21:02;2.40;;;1.73;;
79076;SDS011;68477;42.698;23.342;2023-08-07T14:23:28;4.30;;;2.25;;
79076;SDS011;68477;42.698;23.342;2023-08-07T14:25:54;3.10;;;1.95;;
79076;SDS011;68477;42.698;23.342;2023-08-07T14:28:20;4.07;;;1.85;;
79076;SDS011;68477;42.698;23.342;2023-08-07T14:30:47;2.83;;;2.00;;
79076;SDS011;68477;42.698;23.342;2023-08-07T14:33:13;4.30;;;2.00;;
79076;SDS011;68477;42.698;23.342;2023-08-07T14:35:38;3.78;;;1.80;;
79076;SDS011;68477;42.698;23.342;2023-08-07T14:38:04;3.22;;;1.85;;
79076;SDS011;68477;42.698;23.342;2023-08-07T14:40:29;3.60;;;1.90;;
79076;SDS011;68477;42.698;23.342;2023-08-07T14:42:55;3.58;;;1.98;;
79076;SDS011;68477;42.698;23.342;2023-08-07T14:45:21;2.70;;;1.65;;
79076;SDS011;68477;42.698;23.342;2023-08-07T14:47:47;2.75;;;1.75;;